Mendoza, Argentina

2:44 AM ART on February 12, 2016 (GMT -0300)
El Plumerillo | | Change Station
CLOSE
Current Station
Airport
Location: Mendoza,
Elevation: 2310 ft
Nearby Weather Stations

Elev 2310 ft 32.83 °S, 68.79 °W | Updated 44 minutes ago

Scattered Clouds
Scattered Clouds
77 °F
Feels Like 77 °F
N
5
Wind Variable Wind from South

Today
High -- | Low -- °F
--% Chance of Precip.
Yesterday
High -- | Low -- °F
Precip. -- in
Pressure 29.77 in
Visibility 6.2 miles
Clouds Scattered Clouds 4500 ft
Dew Point 72 °F
Humidity 83%
Rainfall 0.00 in
Snow Depth Not available.
7:08 AM 8:29 PM
Waxing Crescent, 17% visible
METAR SAME 120500Z 18004KT 9999 SCT045 25/22 Q1008
Pressure 29.77 in
Visibility 6.2 miles
Clouds Scattered Clouds 4500 ft
Dew Point 72 °F
Humidity 83%
Rainfall 0.00 in
Snow Depth Not available.
7:08 AM 8:29 PM
Waxing Crescent, 17% visible
METAR SAME 120500Z 18004KT 9999 SCT045 25/22 Q1008

10-Day Weather Forecast

No radar image for this location.
×

Almanac

Astronomy

Feb. 12, 2016 Rise Set
Actual Time
Civil Twilight
Nautical Twilight
Astronomical Twilight
Moon
Length of Visible Light
Length of Day
Tomorrow will be .
, % of the Moon is Illuminated

Today's Extremes

Country Highs Country Lows

Community

WunderPhotos

Upload Photos

1,892,269 photos uploaded!

WunderBlog® & News

Nearby

Air Quality

  Air Quality AQ Index Pollutant
Not available.

Snow Depth

Station Depth Elevation

Earthquake Activity

City Distance Mag. Time & Date
Minimum magnitude displayed is 2.5.

Coastal Water Temperatures

Place Temperature

Stations

Nearby Weather Stations

Station Location Temp. Windchill Dew Point Humidity Wind Precip. Elev Updated Type